Time;durP1;ratioP1;P1;durP2;ratioP2;P2;SDS_P1;SDS_P2;PMS_P1;PMS_P2;Temp;Humidity;BMP_temperature;BMP_pressure;BME280_temperature;BME280_humidity;BME280_pressure;Samples;Min_cycle;Max_cycle;Signal;HPM_P1;HPM_P2
2022/10/01 00:01:39;;;;;;;0.55;0.55;;;;;;;;;;5073676;28;20013;-40
2022/10/01 00:04:04;;;;;;;0.93;0.80;;;;;;;;;;5073404;28;20051;-40
2022/10/01 00:06:29;;;;;;;0.25;0.25;;;;;;;;;;5073502;28;20024;-40
2022/10/01 00:08:55;;;;;;;0.40;0.40;;;;;;;;;;5073279;28;20036;-40
2022/10/01 00:11:22;;;;;;;0.60;0.40;;;;;;;;;;5073328;28;20059;-40
2022/10/01 00:13:48;;;;;;;0.43;0.35;;;;;;;;;;5073072;28;20566;-40
2022/10/01 00:16:15;;;;;;;0.45;0.30;;;;;;;;;;5073099;28;20020;-40
2022/10/01 00:18:41;;;;;;;3.22;0.50;;;;;;;;;;5073072;28;20487;-39
2022/10/01 00:21:11;;;;;;;0.73;0.63;;;;;;;;;;5073190;28;20017;-40
2022/10/01 00:23:36;;;;;;;1.95;0.50;;;;;;;;;;5073194;28;20044;-40
2022/10/01 00:26:14;;;;;;;0.52;0.52;;;;;;;;;;5073250;28;20073;-40
2022/10/01 00:28:40;;;;;;;0.55;0.30;;;;;;;;;;5072918;28;20044;-40
2022/10/01 00:31:06;;;;;;;0.57;0.50;;;;;;;;;;5073086;28;20107;-40
2022/10/01 00:33:31;;;;;;;0.28;0.28;;;;;;;;;;5072741;28;20024;-40
2022/10/01 00:35:57;;;;;;;0.32;0.30;;;;;;;;;;5072694;28;20082;-40
2022/10/01 00:38:23;;;;;;;0.25;0.25;;;;;;;;;;5072822;28;20055;-40
2022/10/01 00:40:48;;;;;;;0.30;0.30;;;;;;;;;;5072980;28;20024;-40
2022/10/01 00:43:20;;;;;;;0.15;0.15;;;;;;;;;;5072763;28;20044;-41
2022/10/01 00:45:47;;;;;;;0.40;0.40;;;;;;;;;;5055023;28;20056;-40
2022/10/01 00:48:12;;;;;;;0.30;0.30;;;;;;;;;;5072750;28;20036;-40
2022/10/01 00:50:38;;;;;;;0.70;0.60;;;;;;;;;;5072463;28;20024;-40
2022/10/01 00:53:05;;;;;;;2.15;0.50;;;;;;;;;;5072445;28;20020;-40
2022/10/01 00:55:38;;;;;;;0.38;0.20;;;;;;;;;;5072612;28;20031;-40
2022/10/01 00:58:04;;;;;;;0.32;0.30;;;;;;;;;;5072296;28;20029;-40
2022/10/01 01:00:30;;;;;;;0.40;0.40;;;;;;;;;;5072240;28;20016;-40
2022/10/01 01:02:56;;;;;;;0.25;0.25;;;;;;;;;;5072299;28;20039;-41
2022/10/01 01:05:22;;;;;;;1.02;0.60;;;;;;;;;;5072192;28;20020;-40
2022/10/01 01:07:48;;;;;;;0.40;0.30;;;;;;;;;;5053886;28;20041;-40
2022/10/01 01:10:16;;;;;;;1.27;0.82;;;;;;;;;;5072157;28;20074;-40
2022/10/01 01:13:00;;;;;;;0.63;0.60;;;;;;;;;;5071926;28;20024;-40
2022/10/01 01:15:34;;;;;;;1.08;0.35;;;;;;;;;;5072098;28;20044;-40
2022/10/01 01:18:05;;;;;;;0.93;0.32;;;;;;;;;;5072215;28;20064;-39
2022/10/01 01:20:50;;;;;;;0.40;0.40;;;;;;;;;;5071831;28;20062;-40
2022/10/01 01:23:15;;;;;;;0.65;0.30;;;;;;;;;;5072192;28;20039;-40
2022/10/01 01:25:53;;;;;;;2.25;0.20;;;;;;;;;;5071846;28;20137;-41
2022/10/01 01:28:21;;;;;;;0.50;0.30;;;;;;;;;;5071772;28;20040;-41
2022/10/01 01:30:49;;;;;;;0.38;0.38;;;;;;;;;;5072005;28;20103;-41
2022/10/01 01:33:16;;;;;;;0.25;0.25;;;;;;;;;;5071699;28;20036;-40
2022/10/01 01:35:45;;;;;;;0.43;0.32;;;;;;;;;;5071555;28;20514;-40
2022/10/01 01:38:13;;;;;;;0.57;0.20;;;;;;;;;;5071725;28;20107;-40
2022/10/01 01:40:39;;;;;;;0.57;0.40;;;;;;;;;;5071490;28;20028;-40
2022/10/01 01:43:07;;;;;;;3.13;0.20;;;;;;;;;;5071554;28;20036;-40
2022/10/01 01:45:34;;;;;;;0.22;0.22;;;;;;;;;;5071491;28;20370;-40
2022/10/01 01:48:01;;;;;;;0.30;0.20;;;;;;;;;;5071522;28;20495;-40
2022/10/01 01:50:28;;;;;;;0.20;0.20;;;;;;;;;;5071614;28;20026;-40
2022/10/01 01:52:54;;;;;;;0.17;0.17;;;;;;;;;;5071669;28;20028;-42
2022/10/01 01:55:22;;;;;;;0.10;0.10;;;;;;;;;;5071377;28;20050;-41
2022/10/01 01:57:48;;;;;;;6.20;0.50;;;;;;;;;;5071272;28;20024;-40
2022/10/01 02:00:13;;;;;;;1.40;0.77;;;;;;;;;;5071765;28;20020;-40
2022/10/01 02:02:41;;;;;;;0.30;0.30;;;;;;;;;;5071360;28;20548;-40
2022/10/01 02:05:11;;;;;;;0.40;0.40;;;;;;;;;;5071341;28;20024;-40
2022/10/01 02:07:56;;;;;;;0.30;0.30;;;;;;;;;;5053177;28;20059;-40
2022/10/01 02:10:39;;;;;;;0.88;0.60;;;;;;;;;;5071301;28;20491;-40
2022/10/01 02:13:05;;;;;;;0.47;0.32;;;;;;;;;;5071250;28;20039;-40
2022/10/01 02:15:49;;;;;;;0.77;0.65;;;;;;;;;;5071308;28;20096;-40
2022/10/01 02:18:15;;;;;;;0.50;0.30;;;;;;;;;;5071260;28;20028;-44
2022/10/01 02:20:49;;;;;;;0.88;0.63;;;;;;;;;;5075325;28;20017;-40
2022/10/01 02:23:18;;;;;;;0.30;0.20;;;;;;;;;;5075305;28;20036;-40
2022/10/01 02:25:48;;;;;;;0.40;0.30;;;;;;;;;;5075497;28;20013;-40
2022/10/01 02:28:21;;;;;;;0.22;0.22;;;;;;;;;;5075462;28;20032;-40
2022/10/01 02:30:47;;;;;;;0.45;0.45;;;;;;;;;;5075153;28;20073;-40
2022/10/01 02:33:14;;;;;;;0.45;0.30;;;;;;;;;;5075438;28;20109;-40
2022/10/01 02:35:41;;;;;;;2.13;0.40;;;;;;;;;;5074994;28;20054;-40
2022/10/01 02:38:08;;;;;;;1.63;0.70;;;;;;;;;;5075126;28;20107;-40
2022/10/01 02:40:35;;;;;;;1.50;0.60;;;;;;;;;;5075182;28;20071;-40
2022/10/01 02:43:05;;;;;;;0.68;0.40;;;;;;;;;;5075258;28;20386;-40
2022/10/01 02:45:31;;;;;;;1.90;0.98;;;;;;;;;;5075161;28;20086;-41
2022/10/01 02:48:17;;;;;;;1.65;0.70;;;;;;;;;;5075054;28;20417;-40
2022/10/01 02:50:47;;;;;;;1.48;1.33;;;;;;;;;;5074817;28;20029;-40
2022/10/01 02:53:18;;;;;;;1.65;0.60;;;;;;;;;;5074647;28;20060;-40
2022/10/01 02:55:44;;;;;;;0.80;0.60;;;;;;;;;;5074659;28;20022;-40
2022/10/01 02:58:10;;;;;;;1.63;0.50;;;;;;;;;;5074942;28;20119;-40
2022/10/01 03:00:35;;;;;;;0.65;0.50;;;;;;;;;;5074527;28;20116;-40
2022/10/01 03:03:01;;;;;;;0.28;0.25;;;;;;;;;;5074543;28;20066;-40
2022/10/01 03:05:26;;;;;;;0.40;0.30;;;;;;;;;;5074758;28;20074;-41
2022/10/01 03:07:52;;;;;;;0.85;0.65;;;;;;;;;;5074579;28;20112;-40
2022/10/01 03:10:17;;;;;;;0.68;0.68;;;;;;;;;;5074514;28;20035;-40
2022/10/01 03:12:46;;;;;;;0.35;0.35;;;;;;;;;;5074504;28;20490;-40
2022/10/01 03:15:12;;;;;;;0.38;0.35;;;;;;;;;;5074606;28;20395;-41
2022/10/01 03:17:37;;;;;;;0.75;0.43;;;;;;;;;;5074204;28;20016;-40
2022/10/01 03:20:04;;;;;;;0.40;0.30;;;;;;;;;;5074452;28;20029;-40
2022/10/01 03:22:29;;;;;;;0.57;0.40;;;;;;;;;;5074282;28;20021;-41
2022/10/01 03:24:55;;;;;;;0.20;0.20;;;;;;;;;;5074411;28;20039;-40
2022/10/01 03:27:21;;;;;;;0.25;0.20;;;;;;;;;;5074274;28;20467;-40
2022/10/01 03:29:46;;;;;;;0.20;0.20;;;;;;;;;;5074144;28;20112;-41
2022/10/01 03:32:12;;;;;;;1.23;1.13;;;;;;;;;;5074375;28;20096;-40
2022/10/01 03:34:37;;;;;;;0.30;0.30;;;;;;;;;;5073616;28;20202;-40
2022/10/01 03:37:03;;;;;;;1.10;0.30;;;;;;;;;;5074019;28;20029;-40
2022/10/01 03:39:29;;;;;;;0.30;0.20;;;;;;;;;;5073884;28;20028;-40
2022/10/01 03:41:54;;;;;;;0.28;0.20;;;;;;;;;;5073798;28;20409;-40
2022/10/01 03:44:19;;;;;;;0.43;0.30;;;;;;;;;;5073810;28;20024;-40
2022/10/01 03:46:45;;;;;;;0.45;0.32;;;;;;;;;;5055710;28;20028;-40
2022/10/01 03:49:10;;;;;;;7.20;0.63;;;;;;;;;;5073665;28;20108;-40
2022/10/01 03:51:37;;;;;;;0.52;0.52;;;;;;;;;;5073863;28;20053;-40
2022/10/01 03:54:03;;;;;;;0.95;0.50;;;;;;;;;;5073635;28;20078;-40
2022/10/01 03:56:29;;;;;;;0.40;0.40;;;;;;;;;;5073646;28;20120;-40
2022/10/01 03:58:54;;;;;;;1.25;0.60;;;;;;;;;;5073540;28;20560;-40
2022/10/01 04:01:20;;;;;;;0.77;0.35;;;;;;;;;;5055578;28;20109;-39
2022/10/01 04:03:45;;;;;;;0.93;0.60;;;;;;;;;;5073316;28;20029;-40
2022/10/01 04:06:11;;;;;;;2.72;0.50;;;;;;;;;;5073674;28;20032;-40
2022/10/01 04:08:37;;;;;;;2.80;1.02;;;;;;;;;;5073463;28;20032;-40
2022/10/01 04:11:04;;;;;;;1.23;0.80;;;;;;;;;;5073267;28;20051;-40
2022/10/01 04:13:30;;;;;;;2.10;1.13;;;;;;;;;;5073544;28;20033;-40
2022/10/01 04:15:55;;;;;;;1.50;0.90;;;;;;;;;;5073174;28;20046;-40
2022/10/01 04:18:20;;;;;;;0.63;0.60;;;;;;;;;;5073141;28;20021;-39
2022/10/01 04:20:46;;;;;;;1.48;1.02;;;;;;;;;;5073357;28;20031;-40
2022/10/01 04:23:11;;;;;;;0.57;0.45;;;;;;;;;;5073309;28;20028;-41
2022/10/01 04:25:37;;;;;;;1.45;0.85;;;;;;;;;;5072995;28;20016;-40
2022/10/01 04:28:03;;;;;;;1.40;0.70;;;;;;;;;;5073001;28;20037;-40
2022/10/01 04:30:30;;;;;;;1.30;0.80;;;;;;;;;;5073251;28;20373;-40
2022/10/01 04:32:56;;;;;;;0.73;0.63;;;;;;;;;;5072763;28;20032;-40
2022/10/01 04:35:22;;;;;;;1.27;0.93;;;;;;;;;;5072648;28;20040;-40
2022/10/01 04:37:48;;;;;;;0.85;0.80;;;;;;;;;;5072832;28;20074;-40
2022/10/01 04:40:14;;;;;;;3.95;0.93;;;;;;;;;;5072947;28;20031;-40
2022/10/01 04:42:41;;;;;;;0.98;0.82;;;;;;;;;;5072038;28;20044;-40
2022/10/01 04:45:07;;;;;;;1.50;0.95;;;;;;;;;;5072656;28;20017;-40
2022/10/01 04:47:32;;;;;;;1.38;0.70;;;;;;;;;;5072487;28;20056;-40
2022/10/01 04:49:58;;;;;;;1.70;0.80;;;;;;;;;;5072644;28;20100;-40
2022/10/01 04:52:23;;;;;;;0.90;0.70;;;;;;;;;;5072474;28;20436;-40
2022/10/01 04:54:51;;;;;;;1.05;0.73;;;;;;;;;;5071159;28;20024;-40
2022/10/01 04:57:16;;;;;;;1.95;0.80;;;;;;;;;;5072429;28;20378;-40
2022/10/01 04:59:42;;;;;;;1.05;0.70;;;;;;;;;;5072267;28;20020;-40
2022/10/01 05:02:07;;;;;;;1.15;0.95;;;;;;;;;;5072619;28;20036;-40
2022/10/01 05:04:33;;;;;;;0.73;0.45;;;;;;;;;;5072208;28;20661;-41
2022/10/01 05:06:58;;;;;;;0.20;0.20;;;;;;;;;;5072156;28;20031;-40
2022/10/01 05:09:23;;;;;;;0.38;0.30;;;;;;;;;;5054273;28;20521;-42
2022/10/01 05:11:50;;;;;;;0.40;0.40;;;;;;;;;;5072127;28;20055;-40
2022/10/01 05:14:18;;;;;;;0.30;0.30;;;;;;;;;;5072038;28;20059;-40
2022/10/01 05:16:44;;;;;;;0.30;0.30;;;;;;;;;;5072263;28;20051;-40
2022/10/01 05:19:09;;;;;;;0.82;0.50;;;;;;;;;;5071989;28;20545;-40
2022/10/01 05:21:35;;;;;;;0.88;0.52;;;;;;;;;;5071883;28;20638;-40
2022/10/01 05:24:01;;;;;;;0.28;0.28;;;;;;;;;;5071840;28;20035;-39
2022/10/01 05:26:26;;;;;;;1.30;0.60;;;;;;;;;;5071810;28;20032;-40
2022/10/01 05:28:52;;;;;;;0.30;0.20;;;;;;;;;;5071940;28;20040;-40
2022/10/01 05:31:18;;;;;;;0.43;0.40;;;;;;;;;;5072109;28;20043;-40
2022/10/01 05:33:43;;;;;;;0.98;0.40;;;;;;;;;;5071992;28;20466;-41
2022/10/01 05:36:09;;;;;;;1.23;0.60;;;;;;;;;;5071579;28;20057;-40
2022/10/01 05:38:37;;;;;;;1.27;0.20;;;;;;;;;;5071605;28;20082;-40
2022/10/01 05:41:03;;;;;;;0.25;0.22;;;;;;;;;;5071703;28;20712;-40
2022/10/01 05:43:30;;;;;;;0.55;0.40;;;;;;;;;;5071593;28;20029;-40
2022/10/01 05:45:59;;;;;;;1.55;0.68;;;;;;;;;;5071636;28;20103;-40
2022/10/01 05:48:24;;;;;;;0.30;0.20;;;;;;;;;;5071490;28;20551;-39
2022/10/01 05:50:50;;;;;;;0.20;0.20;;;;;;;;;;5071507;28;20025;-40
2022/10/01 05:53:16;;;;;;;0.75;0.75;;;;;;;;;;5070594;28;20527;-40
2022/10/01 05:55:41;;;;;;;1.38;0.70;;;;;;;;;;5071396;28;20025;-40
2022/10/01 05:58:11;;;;;;;1.95;0.47;;;;;;;;;;5071510;28;20099;-40
2022/10/01 06:00:38;;;;;;;0.68;0.20;;;;;;;;;;5071376;28;20063;-40
2022/10/01 06:03:04;;;;;;;6.18;1.38;;;;;;;;;;5071432;28;20021;-40
2022/10/01 06:05:31;;;;;;;0.22;0.22;;;;;;;;;;5070616;28;20044;-40
2022/10/01 06:07:57;;;;;;;0.20;0.20;;;;;;;;;;5071315;28;20111;-40
2022/10/01 06:10:23;;;;;;;0.17;0.17;;;;;;;;;;5071223;28;20119;-40
2022/10/01 06:12:49;;;;;;;0.35;0.35;;;;;;;;;;5053248;28;20020;-41
2022/10/01 06:15:15;;;;;;;0.70;0.35;;;;;;;;;;5071597;28;20032;-40
2022/10/01 06:17:43;;;;;;;0.32;0.28;;;;;;;;;;5071176;28;20081;-40
2022/10/01 06:20:11;;;;;;;1.42;0.40;;;;;;;;;;5053221;28;20497;-40
2022/10/01 06:22:37;;;;;;;0.40;0.30;;;;;;;;;;5071210;28;20021;-39
2022/10/01 06:25:04;;;;;;;0.22;0.22;;;;;;;;;;5070988;28;20032;-40
2022/10/01 06:27:29;;;;;;;1.00;0.40;;;;;;;;;;5070984;28;20371;-40
2022/10/01 06:29:55;;;;;;;0.43;0.32;;;;;;;;;;5069958;28;20024;-40
2022/10/01 06:32:21;;;;;;;4.50;0.60;;;;;;;;;;5071309;28;20024;-39
2022/10/01 06:34:47;;;;;;;1.80;0.50;;;;;;;;;;5069590;28;20692;-44
2022/10/01 06:37:12;;;;;;;3.22;0.80;;;;;;;;;;5071409;28;20052;-40
2022/10/01 06:39:38;;;;;;;1.25;0.60;;;;;;;;;;5070949;28;20039;-40
2022/10/01 06:42:03;;;;;;;1.58;0.85;;;;;;;;;;5071035;28;20027;-39
2022/10/01 06:44:29;;;;;;;2.50;0.63;;;;;;;;;;5053028;28;20038;-39
2022/10/01 06:46:54;;;;;;;2.00;0.75;;;;;;;;;;5070816;28;20646;-40
2022/10/01 06:49:21;;;;;;;2.78;0.60;;;;;;;;;;5071246;28;20040;-40
2022/10/01 06:54:30;;;;;;;2.70;0.60;;;;;;;;;;5071157;28;20078;-39
2022/10/01 06:56:58;;;;;;;3.33;1.13;;;;;;;;;;5070890;28;20016;-39
2022/10/01 06:59:23;;;;;;;1.65;0.80;;;;;;;;;;5071145;28;20024;-39
2022/10/01 07:01:50;;;;;;;3.60;0.93;;;;;;;;;;5052560;28;20051;-40
2022/10/01 07:04:16;;;;;;;4.43;1.35;;;;;;;;;;5070977;28;20044;-40
2022/10/01 07:06:41;;;;;;;2.45;0.73;;;;;;;;;;5056861;28;20012;-39
2022/10/01 07:09:08;;;;;;;5.50;1.45;;;;;;;;;;5074410;28;20422;-40
2022/10/01 07:11:35;;;;;;;4.80;1.48;;;;;;;;;;5074401;28;20029;-40
2022/10/01 07:14:03;;;;;;;1.67;0.80;;;;;;;;;;5074403;28;20036;-39
2022/10/01 07:16:30;;;;;;;3.53;0.98;;;;;;;;;;5074026;28;20023;-39
2022/10/01 07:18:56;;;;;;;4.15;0.68;;;;;;;;;;5074231;28;20383;-39
2022/10/01 07:21:22;;;;;;;2.17;0.82;;;;;;;;;;5074275;28;20028;-39
2022/10/01 07:23:49;;;;;;;2.72;0.75;;;;;;;;;;5073457;28;20028;-39
2022/10/01 07:26:15;;;;;;;2.75;1.65;;;;;;;;;;5056105;28;20021;-39
2022/10/01 07:28:43;;;;;;;2.17;0.70;;;;;;;;;;5073806;28;20037;-41
2022/10/01 07:31:10;;;;;;;1.05;0.55;;;;;;;;;;5074044;28;20521;-39
2022/10/01 07:33:38;;;;;;;0.68;0.63;;;;;;;;;;5073903;28;20033;-40
2022/10/01 07:36:05;;;;;;;2.65;1.58;;;;;;;;;;5073856;28;20071;-39
2022/10/01 07:38:34;;;;;;;0.93;0.63;;;;;;;;;;5073974;28;20086;-40
2022/10/01 07:41:01;;;;;;;1.40;1.20;;;;;;;;;;5074114;28;20383;-41
2022/10/01 07:43:27;;;;;;;2.45;1.55;;;;;;;;;;5072508;28;20036;-40
2022/10/01 07:45:56;;;;;;;1.17;1.05;;;;;;;;;;5073523;28;20371;-40
2022/10/01 07:48:26;;;;;;;1.40;1.15;;;;;;;;;;5073653;28;20144;-40
2022/10/01 07:50:52;;;;;;;1.42;0.80;;;;;;;;;;5056134;28;20095;-41
2022/10/01 07:53:18;;;;;;;2.92;1.88;;;;;;;;;;5073618;28;20039;-40
2022/10/01 07:55:44;;;;;;;3.65;1.38;;;;;;;;;;5073578;28;20095;-40
2022/10/01 07:58:13;;;;;;;3.33;1.80;;;;;;;;;;5073607;28;20039;-40
2022/10/01 08:00:38;;;;;;;2.17;1.65;;;;;;;;;;5073734;28;20013;-40
2022/10/01 08:03:04;;;;;;;2.13;1.30;;;;;;;;;;5073769;28;20025;-40
2022/10/01 08:05:31;;;;;;;1.67;1.58;;;;;;;;;;5073533;28;20024;-39
2022/10/01 08:08:06;;;;;;;2.97;1.70;;;;;;;;;;5073596;28;20375;-40
2022/10/01 08:10:35;;;;;;;1.98;1.30;;;;;;;;;;5073430;28;20033;-40
2022/10/01 08:13:13;;;;;;;2.67;1.65;;;;;;;;;;5055125;28;20028;-41
2022/10/01 08:15:43;;;;;;;3.33;2.10;;;;;;;;;;5073124;28;20028;-40
2022/10/01 08:18:10;;;;;;;4.85;2.13;;;;;;;;;;5072506;28;20035;-39
2022/10/01 08:20:38;;;;;;;3.72;2.00;;;;;;;;;;5073419;28;20094;-39
2022/10/01 08:23:04;;;;;;;7.90;2.50;;;;;;;;;;5073359;28;20036;-40
2022/10/01 08:25:30;;;;;;;4.75;2.80;;;;;;;;;;5073137;28;20029;-40
2022/10/01 08:27:56;;;;;;;5.65;3.42;;;;;;;;;;5073136;28;20039;-41
2022/10/01 08:30:21;;;;;;;7.50;3.50;;;;;;;;;;5072891;28;20467;-42
2022/10/01 08:32:46;;;;;;;6.30;3.42;;;;;;;;;;5072759;28;20024;-40
2022/10/01 08:35:12;;;;;;;5.00;2.80;;;;;;;;;;5072771;28;20041;-40
2022/10/01 08:37:37;;;;;;;5.10;2.45;;;;;;;;;;5072878;28;20035;-40
2022/10/01 08:40:03;;;;;;;5.50;3.17;;;;;;;;;;5072781;28;20091;-40
2022/10/01 08:42:28;;;;;;;6.68;3.58;;;;;;;;;;5038173;28;20038;-40
2022/10/01 08:44:54;;;;;;;6.85;2.90;;;;;;;;;;5071408;28;20081;-40
2022/10/01 08:47:49;;;;;;;6.18;3.20;;;;;;;;;;5072510;28;20028;-41
2022/10/01 08:50:14;;;;;;;3.25;2.15;;;;;;;;;;5050728;28;20051;-40
2022/10/01 08:52:43;;;;;;;7.75;3.50;;;;;;;;;;5072426;28;20021;-38
2022/10/01 08:55:12;;;;;;;4.18;2.83;;;;;;;;;;5072360;28;20033;-37
2022/10/01 08:57:45;;;;;;;8.20;3.03;;;;;;;;;;5054436;28;20025;-37
2022/10/01 09:00:15;;;;;;;4.53;2.47;;;;;;;;;;5072375;28;20032;-37
2022/10/01 09:02:42;;;;;;;8.98;2.65;;;;;;;;;;5072219;28;20016;-38
2022/10/01 09:05:23;;;;;;;2.97;2.67;;;;;;;;;;5072382;28;20037;-37
2022/10/01 09:08:00;;;;;;;4.38;2.30;;;;;;;;;;5072135;28;20639;-37
2022/10/01 09:10:45;;;;;;;5.38;2.80;;;;;;;;;;5072145;28;20033;-37
2022/10/01 09:13:38;;;;;;;2.60;1.55;;;;;;;;;;5054111;28;20398;-38
2022/10/01 09:16:09;;;;;;;3.65;1.83;;;;;;;;;;5034599;28;20037;-37
2022/10/01 09:18:37;;;;;;;3.30;2.17;;;;;;;;;;5072009;28;20128;-38
2022/10/01 09:21:06;;;;;;;3.65;2.35;;;;;;;;;;5071926;28;20470;-41
2022/10/01 09:23:37;;;;;;;2.97;1.88;;;;;;;;;;5071866;28;20028;-37
2022/10/01 09:26:04;;;;;;;2.90;2.10;;;;;;;;;;5071871;28;20039;-40
2022/10/01 09:28:31;;;;;;;3.60;2.25;;;;;;;;;;5071598;28;20040;-41
2022/10/01 09:30:57;;;;;;;2.00;1.80;;;;;;;;;;5071684;28;20038;-40
2022/10/01 09:33:28;;;;;;;7.88;2.95;;;;;;;;;;5071687;28;20020;-41
2022/10/01 09:36:08;;;;;;;3.92;2.42;;;;;;;;;;5053541;28;20044;-40
2022/10/01 09:38:41;;;;;;;4.25;2.10;;;;;;;;;;5071890;28;20486;-37
2022/10/01 09:41:07;;;;;;;3.10;2.43;;;;;;;;;;5071707;28;20033;-39
2022/10/01 09:43:33;;;;;;;3.58;2.65;;;;;;;;;;5071642;28;20032;-39
2022/10/01 09:45:59;;;;;;;4.63;2.00;;;;;;;;;;5071797;28;20021;-38
2022/10/01 09:48:33;;;;;;;4.03;2.08;;;;;;;;;;5071558;28;20090;-38
2022/10/01 09:51:18;;;;;;;3.08;2.25;;;;;;;;;;5071508;28;20051;-39
2022/10/01 09:53:46;;;;;;;2.83;2.45;;;;;;;;;;5071190;28;20085;-39
2022/10/01 09:56:22;;;;;;;3.05;1.85;;;;;;;;;;5071810;28;20017;-39
2022/10/01 09:58:51;;;;;;;4.40;2.40;;;;;;;;;;5071407;28;20036;-39
2022/10/01 10:01:22;;;;;;;2.03;1.83;;;;;;;;;;5071417;28;20023;-39
2022/10/01 10:03:55;;;;;;;2.88;2.50;;;;;;;;;;5053586;28;20079;-38
2022/10/01 10:06:30;;;;;;;1.98;1.67;;;;;;;;;;5071311;28;20052;-39
2022/10/01 10:08:56;;;;;;;4.13;2.28;;;;;;;;;;5071252;28;20037;-39
2022/10/01 10:11:23;;;;;;;2.45;2.00;;;;;;;;;;5071298;28;20033;-39
2022/10/01 10:13:51;;;;;;;2.53;1.80;;;;;;;;;;5071447;28;20116;-39
2022/10/01 10:16:25;;;;;;;2.75;1.90;;;;;;;;;;5071582;28;20466;-39
2022/10/01 10:18:52;;;;;;;2.40;1.80;;;;;;;;;;5071464;28;20039;-39
2022/10/01 10:21:20;;;;;;;3.47;2.33;;;;;;;;;;5071042;28;20031;-38
2022/10/01 10:23:48;;;;;;;4.32;2.10;;;;;;;;;;5071099;28;20031;-39
2022/10/01 10:26:19;;;;;;;1.80;1.70;;;;;;;;;;5071475;28;20021;-38
2022/10/01 10:28:47;;;;;;;1.40;1.30;;;;;;;;;;5071263;28;20075;-38
2022/10/01 10:31:17;;;;;;;3.92;2.08;;;;;;;;;;5071432;28;20059;-38
2022/10/01 10:34:06;;;;;;;3.80;1.85;;;;;;;;;;5070998;28;20032;-40
2022/10/01 10:36:33;;;;;;;2.92;1.30;;;;;;;;;;5057899;28;20083;-39
2022/10/01 10:38:59;;;;;;;3.88;1.40;;;;;;;;;;5071282;28;20032;-39
2022/10/01 10:41:26;;;;;;;1.77;1.13;;;;;;;;;;5074544;28;20039;-39
2022/10/01 10:43:57;;;;;;;2.08;1.67;;;;;;;;;;5075184;28;20021;-39
2022/10/01 10:46:30;;;;;;;1.50;1.40;;;;;;;;;;5075173;28;20032;-39
2022/10/01 10:48:59;;;;;;;2.17;0.98;;;;;;;;;;5056821;28;20578;-39
2022/10/01 10:51:26;;;;;;;1.17;1.08;;;;;;;;;;5075121;28;20098;-39
2022/10/01 10:53:52;;;;;;;1.38;1.27;;;;;;;;;;5073484;28;20107;-39
2022/10/01 10:56:21;;;;;;;1.58;1.48;;;;;;;;;;5074950;28;20029;-39
2022/10/01 10:58:47;;;;;;;1.15;0.90;;;;;;;;;;5057089;28;20071;-39
2022/10/01 11:01:18;;;;;;;1.15;1.05;;;;;;;;;;5074908;28;20017;-38
2022/10/01 11:03:48;;;;;;;1.70;1.50;;;;;;;;;;5074457;28;20501;-39
2022/10/01 11:06:16;;;;;;;1.25;1.00;;;;;;;;;;5074629;28;20016;-39
2022/10/01 11:08:42;;;;;;;1.50;0.77;;;;;;;;;;5074362;28;20493;-39
2022/10/01 11:11:26;;;;;;;0.77;0.77;;;;;;;;;;5074645;28;20025;-39
2022/10/01 11:13:57;;;;;;;1.23;1.13;;;;;;;;;;5074408;28;20486;-39
2022/10/01 11:16:31;;;;;;;2.40;0.75;;;;;;;;;;5074693;28;20032;-39
2022/10/01 11:19:14;;;;;;;1.20;0.90;;;;;;;;;;5074267;28;20031;-39
2022/10/01 11:21:58;;;;;;;1.52;0.85;;;;;;;;;;5074134;28;20486;-39
2022/10/01 11:24:49;;;;;;;0.47;0.40;;;;;;;;;;5074438;28;20025;-39
2022/10/01 11:27:35;;;;;;;2.88;0.95;;;;;;;;;;5069103;28;20044;-39
2022/10/01 11:30:15;;;;;;;0.38;0.30;;;;;;;;;;5074053;28;20543;-39
2022/10/01 11:32:44;;;;;;;1.67;0.80;;;;;;;;;;5074146;28;20028;-39
2022/10/01 11:35:13;;;;;;;0.70;0.70;;;;;;;;;;5073916;28;20041;-40
2022/10/01 11:37:48;;;;;;;1.17;0.93;;;;;;;;;;5056471;28;20082;-39
2022/10/01 11:40:16;;;;;;;0.65;0.65;;;;;;;;;;5073789;28;20037;-39
2022/10/01 11:42:43;;;;;;;0.95;0.77;;;;;;;;;;5073757;28;20445;-39
2022/10/01 11:45:09;;;;;;;0.47;0.47;;;;;;;;;;5073791;28;20037;-40
2022/10/01 11:47:36;;;;;;;0.73;0.73;;;;;;;;;;5074040;28;20366;-38
2022/10/01 11:50:04;;;;;;;0.70;0.70;;;;;;;;;;5073974;28;20074;-39
2022/10/01 11:52:36;;;;;;;0.55;0.55;;;;;;;;;;5072286;28;20074;-39
2022/10/01 12:00:42;;;;;;;2.60;0.85;;;;;;;;;;5073536;28;20478;-39
2022/10/01 12:03:14;;;;;;;0.80;0.75;;;;;;;;;;5073574;28;20535;-39
2022/10/01 12:05:41;;;;;;;2.40;1.40;;;;;;;;;;5073459;28;20040;-39
2022/10/01 12:08:14;;;;;;;0.80;0.80;;;;;;;;;;5073565;28;20039;-39
2022/10/01 12:10:43;;;;;;;2.38;0.98;;;;;;;;;;5073304;28;20075;-40
2022/10/01 12:13:09;;;;;;;0.88;0.63;;;;;;;;;;5073353;28;20028;-39
2022/10/01 12:15:40;;;;;;;0.88;0.57;;;;;;;;;;5073508;28;20375;-38
2022/10/01 12:18:13;;;;;;;0.60;0.60;;;;;;;;;;5073261;28;20066;-39
2022/10/01 12:20:45;;;;;;;0.60;0.60;;;;;;;;;;5073207;28;20021;-39
2022/10/01 12:23:16;;;;;;;0.70;0.50;;;;;;;;;;5073315;28;20029;-39
2022/10/01 12:25:53;;;;;;;0.75;0.60;;;;;;;;;;5072942;28;20036;-39
2022/10/01 12:28:22;;;;;;;0.80;0.75;;;;;;;;;;5073170;28;20040;-39
2022/10/01 12:30:53;;;;;;;1.85;1.45;;;;;;;;;;5072981;28;20029;-39
2022/10/01 12:33:21;;;;;;;0.70;0.60;;;;;;;;;;5073192;28;20029;-44
2022/10/01 12:35:52;;;;;;;1.50;0.75;;;;;;;;;;5072741;28;20131;-40
2022/10/01 12:38:26;;;;;;;1.10;0.65;;;;;;;;;;5072891;28;20033;-39
2022/10/01 12:41:01;;;;;;;0.68;0.68;;;;;;;;;;5072804;28;20029;-39
2022/10/01 12:43:27;;;;;;;1.13;0.80;;;;;;;;;;5072938;28;20372;-39
2022/10/01 12:46:10;;;;;;;0.38;0.38;;;;;;;;;;5072764;28;20009;-39
2022/10/01 12:48:51;;;;;;;1.13;0.63;;;;;;;;;;5071233;28;20410;-39
2022/10/01 12:51:27;;;;;;;1.48;1.23;;;;;;;;;;5072472;28;20024;-40
2022/10/01 12:54:13;;;;;;;0.63;0.50;;;;;;;;;;5072517;28;20029;-39
2022/10/01 12:56:45;;;;;;;0.82;0.82;;;;;;;;;;5072348;28;20106;-39
2022/10/01 12:59:13;;;;;;;1.20;0.93;;;;;;;;;;5072458;28;20032;-40
2022/10/01 13:01:58;;;;;;;1.02;0.98;;;;;;;;;;5072420;28;20020;-39
2022/10/01 13:04:43;;;;;;;0.50;0.50;;;;;;;;;;5071951;28;20035;-39
2022/10/01 13:07:21;;;;;;;0.70;0.60;;;;;;;;;;5072263;28;20036;-39
2022/10/01 13:10:05;;;;;;;1.10;0.60;;;;;;;;;;5072232;28;20024;-39
2022/10/01 13:12:35;;;;;;;0.75;0.60;;;;;;;;;;5072098;28;20029;-39
2022/10/01 13:15:02;;;;;;;1.25;0.50;;;;;;;;;;5072354;28;20029;-39
2022/10/01 13:17:35;;;;;;;1.25;0.68;;;;;;;;;;5072063;28;20478;-39
2022/10/01 13:20:01;;;;;;;0.75;0.55;;;;;;;;;;5072235;28;20411;-39
2022/10/01 13:22:31;;;;;;;0.40;0.40;;;;;;;;;;5054090;28;20029;-39
2022/10/01 13:25:15;;;;;;;0.85;0.55;;;;;;;;;;5071810;28;20029;-39
2022/10/01 13:27:45;;;;;;;0.80;0.63;;;;;;;;;;5071686;28;20045;-39
2022/10/01 13:30:19;;;;;;;0.82;0.55;;;;;;;;;;5071812;28;20032;-39
2022/10/01 13:32:50;;;;;;;0.52;0.40;;;;;;;;;;5071622;28;20044;-39
2022/10/01 13:35:35;;;;;;;0.55;0.55;;;;;;;;;;5071556;28;20111;-39
2022/10/01 13:38:12;;;;;;;1.00;0.75;;;;;;;;;;5071484;28;20158;-40
2022/10/01 13:40:37;;;;;;;0.55;0.55;;;;;;;;;;5071763;28;20105;-39
2022/10/01 13:43:18;;;;;;;0.30;0.30;;;;;;;;;;5070353;28;20058;-39
2022/10/01 13:45:45;;;;;;;0.88;0.80;;;;;;;;;;5071588;28;20021;-39
2022/10/01 13:48:14;;;;;;;0.30;0.30;;;;;;;;;;5053494;28;20032;-42
2022/10/01 13:51:03;;;;;;;0.70;0.65;;;;;;;;;;5053681;28;20040;-39
2022/10/01 13:53:30;;;;;;;2.05;1.15;;;;;;;;;;5071579;28;20036;-39
2022/10/01 13:55:57;;;;;;;5.07;1.10;;;;;;;;;;5071754;28;20042;-39
2022/10/01 13:58:30;;;;;;;1.08;1.00;;;;;;;;;;5053618;28;20052;-39
2022/10/01 14:00:58;;;;;;;1.45;1.13;;;;;;;;;;5071347;28;20534;-39
2022/10/01 14:03:24;;;;;;;2.13;1.58;;;;;;;;;;5071349;28;20486;-39
2022/10/01 14:05:55;;;;;;;1.20;1.05;;;;;;;;;;5071638;28;20060;-39
2022/10/01 14:08:30;;;;;;;1.10;0.70;;;;;;;;;;5071270;28;20380;-39
2022/10/01 14:16:38;;;;;;;1.48;1.17;;;;;;;;;;5071400;28;20033;-39
2022/10/01 14:19:04;;;;;;;1.77;0.70;;;;;;;;;;5071246;28;20391;-39
2022/10/01 14:21:33;;;;;;;1.30;1.00;;;;;;;;;;5071306;28;20028;-39
2022/10/01 14:24:25;;;;;;;2.47;1.58;;;;;;;;;;5071231;28;20050;-39
2022/10/01 14:27:14;;;;;;;6.13;1.73;;;;;;;;;;5032597;28;20047;-40
2022/10/01 14:29:49;;;;;;;0.00;0.00;;;;;;;;;;5070845;28;20040;-39
2022/10/01 14:32:41;;;;;;;3.65;1.42;;;;;;;;;;5052963;28;20024;-39
2022/10/01 14:35:19;;;;;;;2.60;1.25;;;;;;;;;;5048103;28;20143;-40
2022/10/01 14:37:45;;;;;;;4.60;2.50;;;;;;;;;;5070972;28;20033;-39
2022/10/01 14:40:17;;;;;;;6.47;3.13;;;;;;;;;;5071106;28;20020;-39
2022/10/01 14:42:42;;;;;;;3.72;2.40;;;;;;;;;;5053020;28;20040;-39
2022/10/01 14:45:17;;;;;;;2.22;1.60;;;;;;;;;;5070979;28;20013;-39
2022/10/01 14:47:43;;;;;;;3.95;2.15;;;;;;;;;;5070753;28;20047;-39
2022/10/01 14:50:11;;;;;;;4.82;2.78;;;;;;;;;;5071230;28;20021;-39
2022/10/01 14:52:38;;;;;;;3.88;2.60;;;;;;;;;;5071201;28;20044;-39
2022/10/01 14:55:05;;;;;;;5.72;2.85;;;;;;;;;;5070903;28;20031;-39
2022/10/01 14:57:34;;;;;;;2.83;1.75;;;;;;;;;;5069578;28;20035;-39
2022/10/01 15:00:00;;;;;;;4.35;2.63;;;;;;;;;;5070852;28;20012;-39
2022/10/01 15:02:28;;;;;;;6.28;2.97;;;;;;;;;;5036672;28;20035;-39
2022/10/01 15:04:55;;;;;;;2.72;1.98;;;;;;;;;;5070783;28;20100;-40
2022/10/01 15:07:21;;;;;;;3.53;2.00;;;;;;;;;;5070703;28;20036;-41
2022/10/01 15:09:47;;;;;;;2.10;1.50;;;;;;;;;;5070870;28;20065;-41